sensor_id;sensor_type;location;lat;lon;timestamp;temperature;humidity
23120;DHT22;11729;50.836;4.330;2023-08-20T00:00:50;21.60;99.90
23120;DHT22;11729;50.836;4.330;2023-08-20T00:03:16;21.60;99.90
23120;DHT22;11729;50.836;4.330;2023-08-20T00:05:42;21.60;99.90
23120;DHT22;11729;50.836;4.330;2023-08-20T00:08:07;21.60;99.90
23120;DHT22;11729;50.836;4.330;2023-08-20T00:10:33;21.60;99.90
23120;DHT22;11729;50.836;4.330;2023-08-20T00:12:59;21.60;99.90
23120;DHT22;11729;50.836;4.330;2023-08-20T00:15:25;21.60;99.90
23120;DHT22;11729;50.836;4.330;2023-08-20T00:17:54;21.50;99.90
23120;DHT22;11729;50.836;4.330;2023-08-20T00:20:20;21.50;99.90
23120;DHT22;11729;50.836;4.330;2023-08-20T00:22:47;21.50;99.90
23120;DHT22;11729;50.836;4.330;2023-08-20T00:25:13;21.40;99.90
23120;DHT22;11729;50.836;4.330;2023-08-20T00:27:42;21.30;99.90
23120;DHT22;11729;50.836;4.330;2023-08-20T00:30:09;21.30;99.90
23120;DHT22;11729;50.836;4.330;2023-08-20T00:32:35;21.30;99.90
23120;DHT22;11729;50.836;4.330;2023-08-20T00:35:01;21.30;99.90
23120;DHT22;11729;50.836;4.330;2023-08-20T00:37:31;21.40;99.90
23120;DHT22;11729;50.836;4.330;2023-08-20T00:39:57;21.40;99.90
23120;DHT22;11729;50.836;4.330;2023-08-20T00:42:23;21.40;99.90
23120;DHT22;11729;50.836;4.330;2023-08-20T00:44:51;21.50;99.90
23120;DHT22;11729;50.836;4.330;2023-08-20T00:47:16;21.50;99.90
23120;DHT22;11729;50.836;4.330;2023-08-20T00:49:43;21.60;99.90
23120;DHT22;11729;50.836;4.330;2023-08-20T00:52:08;21.70;99.90
23120;DHT22;11729;50.836;4.330;2023-08-20T00:54:34;21.80;99.90
23120;DHT22;11729;50.836;4.330;2023-08-20T00:57:01;21.80;99.90
23120;DHT22;11729;50.836;4.330;2023-08-20T00:59:27;21.90;99.90
23120;DHT22;11729;50.836;4.330;2023-08-20T01:01:53;21.90;99.90
23120;DHT22;11729;50.836;4.330;2023-08-20T01:04:19;21.90;99.90
23120;DHT22;11729;50.836;4.330;2023-08-20T01:11:58;22.10;99.90
23120;DHT22;11729;50.836;4.330;2023-08-20T01:14:24;22.20;99.90
23120;DHT22;11729;50.836;4.330;2023-08-20T01:16:50;22.30;99.90
23120;DHT22;11729;50.836;4.330;2023-08-20T01:19:21;22.30;99.90
23120;DHT22;11729;50.836;4.330;2023-08-20T01:29:44;22.40;99.90
23120;DHT22;11729;50.836;4.330;2023-08-20T01:32:10;22.30;99.90
23120;DHT22;11729;50.836;4.330;2023-08-20T01:34:37;22.30;99.90
23120;DHT22;11729;50.836;4.330;2023-08-20T01:37:02;22.30;99.90
23120;DHT22;11729;50.836;4.330;2023-08-20T01:39:28;22.30;99.90
23120;DHT22;11729;50.836;4.330;2023-08-20T01:41:53;22.30;99.90
23120;DHT22;11729;50.836;4.330;2023-08-20T01:44:19;22.30;99.90
23120;DHT22;11729;50.836;4.330;2023-08-20T01:46:45;22.30;99.90
23120;DHT22;11729;50.836;4.330;2023-08-20T01:49:11;22.20;99.90
23120;DHT22;11729;50.836;4.330;2023-08-20T01:51:37;22.10;99.90
23120;DHT22;11729;50.836;4.330;2023-08-20T01:54:04;21.90;99.90
23120;DHT22;11729;50.836;4.330;2023-08-20T01:56:29;21.80;99.90
23120;DHT22;11729;50.836;4.330;2023-08-20T01:58:55;21.70;99.90
23120;DHT22;11729;50.836;4.330;2023-08-20T02:01:21;21.50;99.90
23120;DHT22;11729;50.836;4.330;2023-08-20T02:03:46;21.40;99.90
23120;DHT22;11729;50.836;4.330;2023-08-20T02:06:13;21.20;99.90
23120;DHT22;11729;50.836;4.330;2023-08-20T02:08:38;21.20;99.90
23120;DHT22;11729;50.836;4.330;2023-08-20T02:11:04;21.10;99.90
23120;DHT22;11729;50.836;4.330;2023-08-20T02:13:30;21.10;99.90
23120;DHT22;11729;50.836;4.330;2023-08-20T02:16:04;21.10;99.90
23120;DHT22;11729;50.836;4.330;2023-08-20T02:18:31;21.10;99.90
23120;DHT22;11729;50.836;4.330;2023-08-20T02:20:57;21.10;99.90
23120;DHT22;11729;50.836;4.330;2023-08-20T02:23:22;21.00;99.90
23120;DHT22;11729;50.836;4.330;2023-08-20T02:25:48;21.00;99.90
23120;DHT22;11729;50.836;4.330;2023-08-20T02:28:14;20.90;99.90
23120;DHT22;11729;50.836;4.330;2023-08-20T02:30:42;20.90;99.90
23120;DHT22;11729;50.836;4.330;2023-08-20T02:33:08;20.80;99.90
23120;DHT22;11729;50.836;4.330;2023-08-20T02:35:35;20.80;99.90
23120;DHT22;11729;50.836;4.330;2023-08-20T02:38:01;20.80;99.90
23120;DHT22;11729;50.836;4.330;2023-08-20T02:40:26;20.80;99.90
23120;DHT22;11729;50.836;4.330;2023-08-20T02:42:52;20.60;99.90
23120;DHT22;11729;50.836;4.330;2023-08-20T02:45:17;20.60;99.90
23120;DHT22;11729;50.836;4.330;2023-08-20T02:47:43;20.50;99.90
23120;DHT22;11729;50.836;4.330;2023-08-20T02:50:08;20.50;99.90
23120;DHT22;11729;50.836;4.330;2023-08-20T02:52:34;20.50;99.90
23120;DHT22;11729;50.836;4.330;2023-08-20T02:54:59;20.50;99.90
23120;DHT22;11729;50.836;4.330;2023-08-20T02:57:25;20.40;99.90
23120;DHT22;11729;50.836;4.330;2023-08-20T02:59:51;20.30;99.90
23120;DHT22;11729;50.836;4.330;2023-08-20T03:02:16;20.30;99.90
23120;DHT22;11729;50.836;4.330;2023-08-20T03:04:42;20.20;99.90
23120;DHT22;11729;50.836;4.330;2023-08-20T03:07:08;20.10;99.90
23120;DHT22;11729;50.836;4.330;2023-08-20T03:09:33;20.10;99.90
23120;DHT22;11729;50.836;4.330;2023-08-20T03:11:59;20.10;99.90
23120;DHT22;11729;50.836;4.330;2023-08-20T03:14:25;20.10;99.90
23120;DHT22;11729;50.836;4.330;2023-08-20T03:16:50;20.10;99.90
23120;DHT22;11729;50.836;4.330;2023-08-20T03:19:17;20.00;99.90
23120;DHT22;11729;50.836;4.330;2023-08-20T03:21:43;20.00;99.90
23120;DHT22;11729;50.836;4.330;2023-08-20T03:24:08;20.00;99.90
23120;DHT22;11729;50.836;4.330;2023-08-20T03:26:34;20.00;99.90
23120;DHT22;11729;50.836;4.330;2023-08-20T03:28:59;19.90;99.90
23120;DHT22;11729;50.836;4.330;2023-08-20T03:31:25;19.90;99.90
23120;DHT22;11729;50.836;4.330;2023-08-20T03:33:50;19.80;99.90
23120;DHT22;11729;50.836;4.330;2023-08-20T03:36:16;19.80;99.90
23120;DHT22;11729;50.836;4.330;2023-08-20T03:38:42;19.80;99.90
23120;DHT22;11729;50.836;4.330;2023-08-20T03:41:09;19.80;99.90
23120;DHT22;11729;50.836;4.330;2023-08-20T03:43:35;19.70;99.90
23120;DHT22;11729;50.836;4.330;2023-08-20T03:46:01;19.70;99.90
23120;DHT22;11729;50.836;4.330;2023-08-20T03:48:26;19.70;99.90
23120;DHT22;11729;50.836;4.330;2023-08-20T03:50:52;19.70;99.90
23120;DHT22;11729;50.836;4.330;2023-08-20T03:53:17;19.70;99.90
23120;DHT22;11729;50.836;4.330;2023-08-20T03:55:49;19.70;99.90
23120;DHT22;11729;50.836;4.330;2023-08-20T03:58:15;19.80;99.90
23120;DHT22;11729;50.836;4.330;2023-08-20T04:00:40;19.80;99.90
23120;DHT22;11729;50.836;4.330;2023-08-20T04:03:06;19.80;99.90
23120;DHT22;11729;50.836;4.330;2023-08-20T04:05:37;19.80;99.90
23120;DHT22;11729;50.836;4.330;2023-08-20T04:08:03;19.70;99.90
23120;DHT22;11729;50.836;4.330;2023-08-20T04:10:29;19.70;99.90
23120;DHT22;11729;50.836;4.330;2023-08-20T04:12:55;19.70;99.90
23120;DHT22;11729;50.836;4.330;2023-08-20T04:15:20;19.80;99.90
23120;DHT22;11729;50.836;4.330;2023-08-20T04:17:46;19.80;99.90
23120;DHT22;11729;50.836;4.330;2023-08-20T04:20:11;19.80;99.90
23120;DHT22;11729;50.836;4.330;2023-08-20T04:22:37;19.80;99.90
23120;DHT22;11729;50.836;4.330;2023-08-20T04:25:03;19.80;99.90
23120;DHT22;11729;50.836;4.330;2023-08-20T04:27:28;19.90;99.90
23120;DHT22;11729;50.836;4.330;2023-08-20T04:29:54;19.90;99.90
23120;DHT22;11729;50.836;4.330;2023-08-20T04:32:20;20.00;99.90
23120;DHT22;11729;50.836;4.330;2023-08-20T04:34:45;20.00;99.90
23120;DHT22;11729;50.836;4.330;2023-08-20T04:37:13;20.00;99.90
23120;DHT22;11729;50.836;4.330;2023-08-20T04:39:38;20.10;99.90
23120;DHT22;11729;50.836;4.330;2023-08-20T04:42:04;20.10;99.90
23120;DHT22;11729;50.836;4.330;2023-08-20T04:44:29;20.10;99.90
23120;DHT22;11729;50.836;4.330;2023-08-20T04:46:55;20.10;99.90
23120;DHT22;11729;50.836;4.330;2023-08-20T04:49:21;20.00;99.90
23120;DHT22;11729;50.836;4.330;2023-08-20T04:51:47;20.00;99.90
23120;DHT22;11729;50.836;4.330;2023-08-20T04:54:14;20.00;99.90
23120;DHT22;11729;50.836;4.330;2023-08-20T04:56:39;20.00;99.90
23120;DHT22;11729;50.836;4.330;2023-08-20T04:59:05;20.00;99.90
23120;DHT22;11729;50.836;4.330;2023-08-20T05:01:30;20.00;99.90
23120;DHT22;11729;50.836;4.330;2023-08-20T05:03:56;20.10;99.90
23120;DHT22;11729;50.836;4.330;2023-08-20T05:06:21;20.10;99.90
23120;DHT22;11729;50.836;4.330;2023-08-20T05:08:47;20.00;99.90
23120;DHT22;11729;50.836;4.330;2023-08-20T05:11:12;20.00;99.90
23120;DHT22;11729;50.836;4.330;2023-08-20T05:13:38;20.00;99.90
23120;DHT22;11729;50.836;4.330;2023-08-20T05:16:04;19.90;99.90
23120;DHT22;11729;50.836;4.330;2023-08-20T05:18:29;19.90;99.90
23120;DHT22;11729;50.836;4.330;2023-08-20T05:20:55;19.90;99.90
23120;DHT22;11729;50.836;4.330;2023-08-20T05:23:21;19.90;99.90
23120;DHT22;11729;50.836;4.330;2023-08-20T05:25:47;20.00;99.90
23120;DHT22;11729;50.836;4.330;2023-08-20T05:28:13;20.10;99.90
23120;DHT22;11729;50.836;4.330;2023-08-20T05:30:38;20.00;99.90
23120;DHT22;11729;50.836;4.330;2023-08-20T05:33:04;20.00;99.90
23120;DHT22;11729;50.836;4.330;2023-08-20T05:35:29;20.10;99.90
23120;DHT22;11729;50.836;4.330;2023-08-20T05:37:55;20.20;99.90
23120;DHT22;11729;50.836;4.330;2023-08-20T05:40:20;20.30;99.90
23120;DHT22;11729;50.836;4.330;2023-08-20T05:42:46;20.50;99.90
23120;DHT22;11729;50.836;4.330;2023-08-20T05:45:11;20.70;99.90
23120;DHT22;11729;50.836;4.330;2023-08-20T05:47:37;20.80;99.90
23120;DHT22;11729;50.836;4.330;2023-08-20T05:50:02;20.90;99.90
23120;DHT22;11729;50.836;4.330;2023-08-20T05:52:28;21.20;99.90
23120;DHT22;11729;50.836;4.330;2023-08-20T05:54:53;21.30;99.90
23120;DHT22;11729;50.836;4.330;2023-08-20T05:57:19;21.50;99.90
23120;DHT22;11729;50.836;4.330;2023-08-20T05:59:44;21.60;99.90
23120;DHT22;11729;50.836;4.330;2023-08-20T06:02:10;21.50;99.90
23120;DHT22;11729;50.836;4.330;2023-08-20T06:04:35;21.20;99.90
23120;DHT22;11729;50.836;4.330;2023-08-20T06:07:01;21.10;99.90
23120;DHT22;11729;50.836;4.330;2023-08-20T06:09:26;21.30;99.90
23120;DHT22;11729;50.836;4.330;2023-08-20T06:11:52;21.40;99.90
23120;DHT22;11729;50.836;4.330;2023-08-20T06:14:17;21.60;99.90
23120;DHT22;11729;50.836;4.330;2023-08-20T06:16:43;21.70;99.90
23120;DHT22;11729;50.836;4.330;2023-08-20T06:19:09;21.80;99.90
23120;DHT22;11729;50.836;4.330;2023-08-20T06:21:34;22.40;99.90
23120;DHT22;11729;50.836;4.330;2023-08-20T06:24:00;23.60;99.90
23120;DHT22;11729;50.836;4.330;2023-08-20T06:26:26;25.10;99.90
23120;DHT22;11729;50.836;4.330;2023-08-20T06:28:51;26.90;99.90
23120;DHT22;11729;50.836;4.330;2023-08-20T06:31:17;28.60;99.90
23120;DHT22;11729;50.836;4.330;2023-08-20T06:33:42;30.40;99.90
23120;DHT22;11729;50.836;4.330;2023-08-20T06:36:08;31.90;99.90
23120;DHT22;11729;50.836;4.330;2023-08-20T06:38:33;33.00;99.30
23120;DHT22;11729;50.836;4.330;2023-08-20T06:40:59;33.50;97.70
23120;DHT22;11729;50.836;4.330;2023-08-20T06:43:24;33.50;97.10
23120;DHT22;11729;50.836;4.330;2023-08-20T06:45:50;33.90;95.30
23120;DHT22;11729;50.836;4.330;2023-08-20T06:48:15;34.60;93.40
23120;DHT22;11729;50.836;4.330;2023-08-20T06:50:41;35.30;91.50
23120;DHT22;11729;50.836;4.330;2023-08-20T06:53:07;35.60;88.10
23120;DHT22;11729;50.836;4.330;2023-08-20T06:55:32;36.10;88.30
23120;DHT22;11729;50.836;4.330;2023-08-20T06:57:58;36.80;84.00
23120;DHT22;11729;50.836;4.330;2023-08-20T07:00:23;37.00;74.90
23120;DHT22;11729;50.836;4.330;2023-08-20T07:02:50;37.30;76.10
23120;DHT22;11729;50.836;4.330;2023-08-20T07:05:16;37.70;73.00
23120;DHT22;11729;50.836;4.330;2023-08-20T07:07:42;37.70;71.80
23120;DHT22;11729;50.836;4.330;2023-08-20T07:10:08;38.20;71.10
23120;DHT22;11729;50.836;4.330;2023-08-20T07:12:33;38.70;67.70
23120;DHT22;11729;50.836;4.330;2023-08-20T07:14:59;39.10;65.10
23120;DHT22;11729;50.836;4.330;2023-08-20T07:17:24;38.70;62.20
23120;DHT22;11729;50.836;4.330;2023-08-20T07:19:50;38.90;63.40
23120;DHT22;11729;50.836;4.330;2023-08-20T07:22:15;39.30;63.20
23120;DHT22;11729;50.836;4.330;2023-08-20T07:24:41;39.60;63.00
23120;DHT22;11729;50.836;4.330;2023-08-20T07:27:06;40.00;61.10
23120;DHT22;11729;50.836;4.330;2023-08-20T07:29:36;40.20;58.50
23120;DHT22;11729;50.836;4.330;2023-08-20T07:32:02;40.60;55.50
23120;DHT22;11729;50.836;4.330;2023-08-20T07:34:28;40.40;54.30
23120;DHT22;11729;50.836;4.330;2023-08-20T07:36:54;40.00;54.30
23120;DHT22;11729;50.836;4.330;2023-08-20T07:39:20;40.00;54.40
23120;DHT22;11729;50.836;4.330;2023-08-20T07:41:45;40.30;54.90
23120;DHT22;11729;50.836;4.330;2023-08-20T07:44:11;40.60;53.30
23120;DHT22;11729;50.836;4.330;2023-08-20T07:46:36;40.90;52.80
23120;DHT22;11729;50.836;4.330;2023-08-20T07:49:02;40.70;52.60
23120;DHT22;11729;50.836;4.330;2023-08-20T07:51:27;40.40;50.60
23120;DHT22;11729;50.836;4.330;2023-08-20T07:53:53;40.50;50.90
23120;DHT22;11729;50.836;4.330;2023-08-20T07:56:18;40.50;53.10
23120;DHT22;11729;50.836;4.330;2023-08-20T07:58:44;40.90;52.00
23120;DHT22;11729;50.836;4.330;2023-08-20T08:01:09;41.10;51.60
23120;DHT22;11729;50.836;4.330;2023-08-20T08:03:35;41.30;53.40
23120;DHT22;11729;50.836;4.330;2023-08-20T08:06:00;41.10;50.30
23120;DHT22;11729;50.836;4.330;2023-08-20T08:08:26;41.30;51.40
23120;DHT22;11729;50.836;4.330;2023-08-20T08:10:52;41.10;50.90
23120;DHT22;11729;50.836;4.330;2023-08-20T08:13:19;41.10;48.00
23120;DHT22;11729;50.836;4.330;2023-08-20T08:15:45;41.20;49.00
23120;DHT22;11729;50.836;4.330;2023-08-20T08:18:11;41.20;47.80
23120;DHT22;11729;50.836;4.330;2023-08-20T08:20:37;41.00;47.90
23120;DHT22;11729;50.836;4.330;2023-08-20T08:23:02;41.40;49.70
23120;DHT22;11729;50.836;4.330;2023-08-20T08:25:28;41.00;45.70
23120;DHT22;11729;50.836;4.330;2023-08-20T08:27:53;41.20;48.30
23120;DHT22;11729;50.836;4.330;2023-08-20T08:30:19;40.90;44.50
23120;DHT22;11729;50.836;4.330;2023-08-20T08:32:45;41.10;44.40
23120;DHT22;11729;50.836;4.330;2023-08-20T08:35:10;41.20;42.50
23120;DHT22;11729;50.836;4.330;2023-08-20T08:37:36;41.30;44.70
23120;DHT22;11729;50.836;4.330;2023-08-20T08:40:02;40.70;44.40
23120;DHT22;11729;50.836;4.330;2023-08-20T08:42:31;41.00;45.40
23120;DHT22;11729;50.836;4.330;2023-08-20T08:44:57;41.30;45.70
23120;DHT22;11729;50.836;4.330;2023-08-20T08:47:24;41.20;45.00
23120;DHT22;11729;50.836;4.330;2023-08-20T08:49:50;40.80;44.80
23120;DHT22;11729;50.836;4.330;2023-08-20T08:52:17;40.40;43.90
23120;DHT22;11729;50.836;4.330;2023-08-20T08:54:45;40.70;47.50
23120;DHT22;11729;50.836;4.330;2023-08-20T08:57:11;41.00;46.40
23120;DHT22;11729;50.836;4.330;2023-08-20T08:59:36;40.90;43.00
23120;DHT22;11729;50.836;4.330;2023-08-20T09:02:07;40.50;43.20
23120;DHT22;11729;50.836;4.330;2023-08-20T09:04:32;40.50;46.30
23120;DHT22;11729;50.836;4.330;2023-08-20T09:06:58;41.20;47.50
23120;DHT22;11729;50.836;4.330;2023-08-20T09:09:24;40.80;43.60
23120;DHT22;11729;50.836;4.330;2023-08-20T09:11:55;40.90;43.90
23120;DHT22;11729;50.836;4.330;2023-08-20T09:14:22;41.10;45.00
23120;DHT22;11729;50.836;4.330;2023-08-20T09:16:57;40.80;43.70
23120;DHT22;11729;50.836;4.330;2023-08-20T09:19:23;41.00;44.90
23120;DHT22;11729;50.836;4.330;2023-08-20T09:21:49;41.40;45.90
23120;DHT22;11729;50.836;4.330;2023-08-20T09:24:14;41.10;45.10
23120;DHT22;11729;50.836;4.330;2023-08-20T09:26:44;40.70;44.20
23120;DHT22;11729;50.836;4.330;2023-08-20T09:29:10;41.30;43.00
23120;DHT22;11729;50.836;4.330;2023-08-20T09:31:37;40.50;43.10
23120;DHT22;11729;50.836;4.330;2023-08-20T09:34:04;41.00;43.50
23120;DHT22;11729;50.836;4.330;2023-08-20T09:36:30;41.50;45.30
23120;DHT22;11729;50.836;4.330;2023-08-20T09:38:56;41.30;43.30
23120;DHT22;11729;50.836;4.330;2023-08-20T09:41:22;39.90;41.70
23120;DHT22;11729;50.836;4.330;2023-08-20T09:43:48;40.70;45.90
23120;DHT22;11729;50.836;4.330;2023-08-20T09:46:13;41.20;41.00
23120;DHT22;11729;50.836;4.330;2023-08-20T09:48:41;41.50;42.90
23120;DHT22;11729;50.836;4.330;2023-08-20T09:51:10;41.70;40.20
23120;DHT22;11729;50.836;4.330;2023-08-20T09:56:28;42.00;41.00
23120;DHT22;11729;50.836;4.330;2023-08-20T09:58:55;41.60;40.80
23120;DHT22;11729;50.836;4.330;2023-08-20T10:01:20;41.00;43.30
23120;DHT22;11729;50.836;4.330;2023-08-20T10:03:46;41.40;42.00
23120;DHT22;11729;50.836;4.330;2023-08-20T10:06:11;41.90;42.30
23120;DHT22;11729;50.836;4.330;2023-08-20T10:08:37;42.00;41.00
23120;DHT22;11729;50.836;4.330;2023-08-20T10:11:03;42.10;42.20
23120;DHT22;11729;50.836;4.330;2023-08-20T10:13:29;42.30;42.90
23120;DHT22;11729;50.836;4.330;2023-08-20T10:15:55;42.30;41.30
23120;DHT22;11729;50.836;4.330;2023-08-20T10:18:21;40.80;40.90
23120;DHT22;11729;50.836;4.330;2023-08-20T10:20:50;41.10;43.10
23120;DHT22;11729;50.836;4.330;2023-08-20T10:23:17;40.80;42.80
23120;DHT22;11729;50.836;4.330;2023-08-20T10:25:45;40.70;41.80
23120;DHT22;11729;50.836;4.330;2023-08-20T10:28:13;40.60;44.60
23120;DHT22;11729;50.836;4.330;2023-08-20T10:30:46;40.50;43.70
23120;DHT22;11729;50.836;4.330;2023-08-20T10:33:25;40.00;44.50
23120;DHT22;11729;50.836;4.330;2023-08-20T10:35:51;40.20;44.90
23120;DHT22;11729;50.836;4.330;2023-08-20T10:38:18;40.90;43.30
23120;DHT22;11729;50.836;4.330;2023-08-20T10:48:38;40.40;44.80
23120;DHT22;11729;50.836;4.330;2023-08-20T10:53:33;39.50;46.60
23120;DHT22;11729;50.836;4.330;2023-08-20T10:56:14;40.10;44.10
23120;DHT22;11729;50.836;4.330;2023-08-20T10:58:41;40.40;42.70
23120;DHT22;11729;50.836;4.330;2023-08-20T11:03:41;41.00;41.70
23120;DHT22;11729;50.836;4.330;2023-08-20T11:06:07;40.60;45.60
23120;DHT22;11729;50.836;4.330;2023-08-20T11:08:33;40.60;45.30
23120;DHT22;11729;50.836;4.330;2023-08-20T11:10:58;40.70;41.90
23120;DHT22;11729;50.836;4.330;2023-08-20T11:13:25;40.60;42.50
23120;DHT22;11729;50.836;4.330;2023-08-20T11:15:50;40.90;43.50
23120;DHT22;11729;50.836;4.330;2023-08-20T11:18:16;41.00;41.70
23120;DHT22;11729;50.836;4.330;2023-08-20T11:20:41;41.40;43.50
23120;DHT22;11729;50.836;4.330;2023-08-20T11:23:07;41.40;41.90
23120;DHT22;11729;50.836;4.330;2023-08-20T11:25:34;41.20;41.10
23120;DHT22;11729;50.836;4.330;2023-08-20T11:27:59;41.40;41.00
23120;DHT22;11729;50.836;4.330;2023-08-20T11:30:29;40.90;41.40
23120;DHT22;11729;50.836;4.330;2023-08-20T11:32:54;40.60;44.90
23120;DHT22;11729;50.836;4.330;2023-08-20T11:35:20;40.00;42.20
23120;DHT22;11729;50.836;4.330;2023-08-20T11:37:46;40.20;44.70
23120;DHT22;11729;50.836;4.330;2023-08-20T11:40:11;39.60;42.10
23120;DHT22;11729;50.836;4.330;2023-08-20T11:42:37;39.00;43.60
23120;DHT22;11729;50.836;4.330;2023-08-20T11:45:02;38.20;44.80
23120;DHT22;11729;50.836;4.330;2023-08-20T11:47:28;36.70;47.20
23120;DHT22;11729;50.836;4.330;2023-08-20T11:50:06;37.20;45.60
23120;DHT22;11729;50.836;4.330;2023-08-20T11:52:33;37.90;47.70
23120;DHT22;11729;50.836;4.330;2023-08-20T11:54:59;37.90;46.30
23120;DHT22;11729;50.836;4.330;2023-08-20T11:57:25;38.60;48.80
23120;DHT22;11729;50.836;4.330;2023-08-20T11:59:51;39.20;47.00
23120;DHT22;11729;50.836;4.330;2023-08-20T12:02:24;39.20;44.10
23120;DHT22;11729;50.836;4.330;2023-08-20T12:04:50;38.50;48.80
23120;DHT22;11729;50.836;4.330;2023-08-20T12:07:16;38.60;45.40
23120;DHT22;11729;50.836;4.330;2023-08-20T12:09:42;38.20;45.50
23120;DHT22;11729;50.836;4.330;2023-08-20T12:12:07;36.90;46.50
23120;DHT22;11729;50.836;4.330;2023-08-20T12:14:33;36.30;48.60
23120;DHT22;11729;50.836;4.330;2023-08-20T12:16:59;36.30;48.70
23120;DHT22;11729;50.836;4.330;2023-08-20T12:19:25;36.50;49.40
23120;DHT22;11729;50.836;4.330;2023-08-20T12:21:50;36.50;49.30
23120;DHT22;11729;50.836;4.330;2023-08-20T12:24:16;37.50;49.60
23120;DHT22;11729;50.836;4.330;2023-08-20T12:26:42;38.10;48.00
23120;DHT22;11729;50.836;4.330;2023-08-20T12:29:07;38.80;52.20
23120;DHT22;11729;50.836;4.330;2023-08-20T12:31:33;39.20;50.30
23120;DHT22;11729;50.836;4.330;2023-08-20T12:33:59;39.90;49.70
23120;DHT22;11729;50.836;4.330;2023-08-20T12:36:24;40.70;48.50
23120;DHT22;11729;50.836;4.330;2023-08-20T12:38:50;41.10;46.30
23120;DHT22;11729;50.836;4.330;2023-08-20T12:41:16;41.50;47.20
23120;DHT22;11729;50.836;4.330;2023-08-20T12:43:41;41.90;44.80
23120;DHT22;11729;50.836;4.330;2023-08-20T12:46:07;41.90;44.90
23120;DHT22;11729;50.836;4.330;2023-08-20T12:48:32;41.70;44.40
23120;DHT22;11729;50.836;4.330;2023-08-20T12:50:58;42.00;45.70
23120;DHT22;11729;50.836;4.330;2023-08-20T12:53:24;41.30;44.60
23120;DHT22;11729;50.836;4.330;2023-08-20T12:55:49;41.00;44.30
23120;DHT22;11729;50.836;4.330;2023-08-20T12:58:15;39.50;45.90
23120;DHT22;11729;50.836;4.330;2023-08-20T13:00:40;38.30;47.70
23120;DHT22;11729;50.836;4.330;2023-08-20T13:03:06;38.00;48.20
23120;DHT22;11729;50.836;4.330;2023-08-20T13:05:32;38.70;48.60
23120;DHT22;11729;50.836;4.330;2023-08-20T13:07:57;39.20;48.10
23120;DHT22;11729;50.836;4.330;2023-08-20T13:10:23;40.10;47.50
23120;DHT22;11729;50.836;4.330;2023-08-20T13:12:50;40.10;44.30
23120;DHT22;11729;50.836;4.330;2023-08-20T13:15:16;40.10;45.90
23120;DHT22;11729;50.836;4.330;2023-08-20T13:17:42;40.30;46.50
23120;DHT22;11729;50.836;4.330;2023-08-20T13:20:08;39.70;45.10
23120;DHT22;11729;50.836;4.330;2023-08-20T13:22:34;39.40;48.10
23120;DHT22;11729;50.836;4.330;2023-08-20T13:24:59;39.00;47.90
23120;DHT22;11729;50.836;4.330;2023-08-20T13:27:25;38.50;50.00
23120;DHT22;11729;50.836;4.330;2023-08-20T13:29:51;39.20;50.90
23120;DHT22;11729;50.836;4.330;2023-08-20T13:32:16;40.10;47.30
23120;DHT22;11729;50.836;4.330;2023-08-20T13:34:41;40.80;47.50
23120;DHT22;11729;50.836;4.330;2023-08-20T13:37:07;41.40;46.10
23120;DHT22;11729;50.836;4.330;2023-08-20T13:39:32;42.40;45.00
23120;DHT22;11729;50.836;4.330;2023-08-20T13:41:58;43.30;42.80
23120;DHT22;11729;50.836;4.330;2023-08-20T13:44:23;42.50;46.50
23120;DHT22;11729;50.836;4.330;2023-08-20T13:46:49;42.20;46.70
23120;DHT22;11729;50.836;4.330;2023-08-20T13:49:14;40.90;47.20
23120;DHT22;11729;50.836;4.330;2023-08-20T13:51:40;40.10;46.40
23120;DHT22;11729;50.836;4.330;2023-08-20T13:54:05;39.30;47.80
23120;DHT22;11729;50.836;4.330;2023-08-20T13:56:31;38.40;49.00
23120;DHT22;11729;50.836;4.330;2023-08-20T13:58:57;37.10;49.20
23120;DHT22;11729;50.836;4.330;2023-08-20T14:01:22;36.60;54.30
23120;DHT22;11729;50.836;4.330;2023-08-20T14:03:48;36.20;53.20
23120;DHT22;11729;50.836;4.330;2023-08-20T14:06:14;35.90;54.00
23120;DHT22;11729;50.836;4.330;2023-08-20T14:08:40;35.80;55.10
23120;DHT22;11729;50.836;4.330;2023-08-20T14:11:05;35.60;56.30
23120;DHT22;11729;50.836;4.330;2023-08-20T14:13:31;35.50;55.20
23120;DHT22;11729;50.836;4.330;2023-08-20T14:15:58;35.30;58.80
23120;DHT22;11729;50.836;4.330;2023-08-20T14:18:25;34.70;55.00
23120;DHT22;11729;50.836;4.330;2023-08-20T14:20:51;34.30;55.50
23120;DHT22;11729;50.836;4.330;2023-08-20T14:23:16;34.00;59.50
23120;DHT22;11729;50.836;4.330;2023-08-20T14:25:42;33.90;58.10
23120;DHT22;11729;50.836;4.330;2023-08-20T14:28:08;34.10;58.00
23120;DHT22;11729;50.836;4.330;2023-08-20T14:30:37;33.90;58.50
23120;DHT22;11729;50.836;4.330;2023-08-20T14:33:03;33.90;59.00
23120;DHT22;11729;50.836;4.330;2023-08-20T14:35:30;33.80;57.80
23120;DHT22;11729;50.836;4.330;2023-08-20T14:37:57;33.80;59.20
23120;DHT22;11729;50.836;4.330;2023-08-20T14:40:23;33.00;59.10
23120;DHT22;11729;50.836;4.330;2023-08-20T14:42:49;32.60;60.50
23120;DHT22;11729;50.836;4.330;2023-08-20T14:45:14;32.40;60.80
23120;DHT22;11729;50.836;4.330;2023-08-20T14:47:40;32.40;59.70
23120;DHT22;11729;50.836;4.330;2023-08-20T14:50:06;32.30;60.10
23120;DHT22;11729;50.836;4.330;2023-08-20T14:52:32;32.00;60.50
23120;DHT22;11729;50.836;4.330;2023-08-20T14:54:57;32.10;62.10
23120;DHT22;11729;50.836;4.330;2023-08-20T14:57:23;32.50;66.50
23120;DHT22;11729;50.836;4.330;2023-08-20T14:59:50;32.60;61.00
23120;DHT22;11729;50.836;4.330;2023-08-20T15:02:15;32.50;62.60
23120;DHT22;11729;50.836;4.330;2023-08-20T15:04:41;32.30;62.30
23120;DHT22;11729;50.836;4.330;2023-08-20T15:07:06;32.30;63.60
23120;DHT22;11729;50.836;4.330;2023-08-20T15:09:32;32.30;62.20
23120;DHT22;11729;50.836;4.330;2023-08-20T15:11:57;32.30;63.60
23120;DHT22;11729;50.836;4.330;2023-08-20T15:14:23;32.10;65.70
23120;DHT22;11729;50.836;4.330;2023-08-20T15:16:48;32.30;63.90
23120;DHT22;11729;50.836;4.330;2023-08-20T15:19:14;32.30;63.40
23120;DHT22;11729;50.836;4.330;2023-08-20T15:21:39;32.50;64.30
23120;DHT22;11729;50.836;4.330;2023-08-20T15:24:05;32.60;64.00
23120;DHT22;11729;50.836;4.330;2023-08-20T15:26:30;32.60;63.00
23120;DHT22;11729;50.836;4.330;2023-08-20T15:28:56;32.60;62.20
23120;DHT22;11729;50.836;4.330;2023-08-20T15:31:21;32.40;62.60
23120;DHT22;11729;50.836;4.330;2023-08-20T15:33:48;32.20;62.50
23120;DHT22;11729;50.836;4.330;2023-08-20T15:36:13;32.00;65.30
23120;DHT22;11729;50.836;4.330;2023-08-20T15:38:39;31.80;65.10
23120;DHT22;11729;50.836;4.330;2023-08-20T15:41:05;31.70;65.50
23120;DHT22;11729;50.836;4.330;2023-08-20T15:43:30;31.50;66.60
23120;DHT22;11729;50.836;4.330;2023-08-20T15:45:56;31.40;68.00
23120;DHT22;11729;50.836;4.330;2023-08-20T15:48:21;31.20;67.90
23120;DHT22;11729;50.836;4.330;2023-08-20T15:50:47;30.90;69.50